Time;durP1;ratioP1;P1;durP2;ratioP2;P2;SDS_P1;SDS_P2;PMS_P1;PMS_P2;Temp;Humidity;BMP_temperature;BMP_pressure;BME280_temperature;BME280_humidity;BME280_pressure;Samples;Min_cycle;Max_cycle;Signal;HPM_P1;HPM_P2
2020/12/03 01:05:52;;;;;;;;;;;;;;;;;;;;;
2020/12/03 01:08:18;;;;;;;61.40;27.35;;;;;;;0.79;85.32;93424.06;4098994;27;20068;-90
2020/12/03 01:10:46;;;;;;;;;;;;;;;0.75;85.42;93425.28;4147863;27;20079;-88
2020/12/03 01:13:16;;;;;;;49.55;22.73;;;;;;;0.65;85.43;93402.59;4170893;26;19961;-89
2020/12/03 01:15:48;;;;;;;48.70;23.27;;;;;;;0.61;85.57;93385.34;4171012;26;20040;-90
2020/12/03 01:19:03;;;;;;;;;;;;;;;;;;;;;
2020/12/03 01:21:32;;;;;;;;;;;;;;;0.84;85.16;93422.84;4167979;26;20418;-91
2020/12/03 01:24:00;;;;;;;40.55;21.38;;;;;;;0.64;85.76;93415.38;4167478;27;19968;-89
2020/12/03 01:26:28;;;;;;;41.72;22.67;;;;;;;0.72;85.68;93420.53;4170400;26;20044;-89
2020/12/03 01:28:55;;;;;;;45.03;23.90;;;;;;;0.78;85.19;93411.56;4170307;34;20071;-89
2020/12/03 01:31:30;;;;;;;;;;;;;;;;;;;;;
2020/12/03 01:33:58;;;;;;;26.55;16.25;;;;;;;0.41;86.08;93408.22;4162663;34;19964;-90
2020/12/03 01:36:30;;;;;;;39.50;18.70;;;;;;;0.33;86.60;93411.44;4167209;34;20079;-90
2020/12/03 01:38:58;;;;;;;29.80;18.10;;;;;;;0.43;86.71;93403.81;4170500;34;20385;-89
2020/12/03 01:41:25;;;;;;;44.42;20.98;;;;;;;0.42;87.05;93406.50;4167626;26;20127;-91
2020/12/03 01:44:01;;;;;;;;;;;;;;;;;;;;;
2020/12/03 01:46:28;;;;;;;46.38;22.13;;;;;;;0.45;86.44;93401.94;4162446;27;20060;-89
2020/12/03 01:48:59;;;;;;;;;;;;;;;0.53;86.40;93406.28;4167580;34;20132;-90
2020/12/03 01:51:31;;;;;;;40.30;18.35;;;;;;;0.55;87.20;93393.50;4170409;34;19971;-89
2020/12/03 01:54:20;;;;;;;;;;;;;;;;;;;;;
2020/12/03 01:57:20;;;;;;;43.95;24.10;;;;;;;0.13;86.38;93309.72;4167318;27;20053;-90
2020/12/03 01:59:55;;;;;;;43.85;22.60;;;;;;;0.72;86.14;93390.19;4170607;26;20123;-89
2020/12/03 02:02:25;;;;;;;53.17;24.48;;;;;;;0.74;85.58;93378.19;4170215;26;20092;-90
2020/12/03 02:05:07;;;;;;;44.60;20.85;;;;;;;0.69;86.34;93347.47;4169479;34;20115;-89
2020/12/03 02:10:39;;;;;;;48.47;25.58;;;;;;;0.88;85.99;93365.97;4167034;26;20085;-89
2020/12/03 02:13:06;;;;;;;48.95;25.02;;;;;;;0.74;85.66;93344.53;4170058;26;20048;-90
2020/12/03 02:15:32;;;;;;;;;;;;;;;0.89;86.35;93352.38;4167796;26;20524;-89
2020/12/03 02:18:02;;;;;;;53.85;24.42;;;;;;;0.85;86.03;93354.41;4167149;34;19992;-90
2020/12/03 02:20:31;;;;;;;58.90;28.15;;;;;;;0.90;85.63;93349.72;4170111;34;20052;-90
2020/12/03 02:23:09;;;;;;;55.70;26.52;;;;;;;0.79;85.75;93332.25;4166913;34;20477;-90
2020/12/03 02:25:43;;;;;;;52.40;29.67;;;;;;;0.90;85.88;93348.91;4170082;26;20131;-89
2020/12/03 02:28:13;;;;;;;57.95;29.90;;;;;;;0.88;85.57;93343.22;4170205;26;20068;-90
2020/12/03 02:30:58;;;;;;;;;;;;;;;;;;;;;
2020/12/03 02:33:25;;;;;;;54.33;24.98;;;;;;;1.00;85.27;93357.22;4166896;34;20131;-90
2020/12/03 02:35:53;;;;;;;58.72;27.08;;;;;;;0.95;85.15;93346.75;4170209;27;20117;-90
2020/12/03 02:38:32;;;;;;;;;;;;;;;;;;;;;
2020/12/03 02:41:00;;;;;;;53.75;27.45;;;;;;;0.93;85.02;93344.34;4176968;26;20403;-89
2020/12/03 02:43:29;;;;;;;47.50;25.70;;;;;;;1.00;85.21;93353.88;4183826;26;20048;-88
2020/12/03 02:45:56;;;;;;;62.28;28.60;;;;;;;1.01;85.18;93347.88;4183158;34;20068;-89
2020/12/03 02:48:27;;;;;;;60.17;25.83;;;;;;;0.79;84.77;93322.13;4180528;26;20572;-90
2020/12/03 02:50:54;;;;;;;46.30;23.85;;;;;;;0.93;85.10;93346.88;4183567;34;20075;-88
2020/12/03 02:53:20;;;;;;;57.88;28.60;;;;;;;0.82;86.42;93333.69;4180426;26;20068;-87
2020/12/03 02:55:46;;;;;;;;;;;;;;;0.58;86.72;93324.94;4183841;26;20079;-88
2020/12/03 02:58:16;;;;;;;34.38;19.70;;;;;;;0.29;87.96;93333.56;4183290;26;19983;-88
2020/12/03 03:00:45;;;;;;;37.00;18.95;;;;;;;0.02;87.63;93297.28;4183503;26;20052;-89
2020/12/03 03:03:12;;;;;;;48.65;21.45;;;;;;;0.08;89.38;93340.47;4183751;26;20091;-87
2020/12/03 03:06:02;;;;;;;;;;;;;;;;;;;;;
2020/12/03 03:08:32;;;;;;;39.42;21.52;;;;;;;0.44;88.19;93341.41;4179165;26;20455;-87
2020/12/03 03:10:58;;;;;;;35.70;19.95;;;;;;;0.51;88.12;93340.72;4183463;26;20484;-90
2020/12/03 03:13:26;;;;;;;;;;;;;;;0.47;88.10;93341.91;4198601;26;20456;-89
2020/12/03 03:16:02;;;;;;;;;;;;;;;;;;;;;
2020/12/03 03:18:28;;;;;;;25.35;14.32;;;;;;;0.31;89.02;93341.78;4179982;34;20055;-89
2020/12/03 03:20:55;;;;;;;24.70;14.10;;;;;;;0.20;89.45;93330.16;4180400;26;20380;-88
2020/12/03 03:23:22;;;;;;;29.60;15.85;;;;;;;0.01;90.74;93318.44;4183379;26;20075;-88
2020/12/03 03:25:59;;;;;;;;;;;;;;;;;;;;;
2020/12/03 03:28:29;;;;;;;29.48;15.82;;;;;;;0.34;88.88;93332.19;4180038;34;20133;-89
2020/12/03 03:30:57;;;;;;;37.42;18.90;;;;;;;0.14;88.31;93334.06;4183553;26;20048;-90
2020/12/03 03:33:23;;;;;;;35.47;17.70;;;;;;;0.33;87.91;93343.22;4183391;26;20122;-89
2020/12/03 03:35:50;;;;;;;34.30;16.50;;;;;;;0.13;87.07;93308.00;4180260;26;20065;-89
2020/12/03 03:38:16;;;;;;;;;;;;;;;0.06;87.65;93341.53;4183629;26;20608;-89
2020/12/03 03:40:44;;;;;;;21.25;13.60;;;;;;;0.06;88.31;93337.28;4180195;26;20006;-89
2020/12/03 03:43:14;;;;;;;24.50;14.77;;;;;;;0.15;88.13;93325.53;4183717;26;20109;-88
2020/12/03 03:45:41;;;;;;;34.47;13.95;;;;;;;0.28;87.69;93337.03;4183449;26;20052;-87
2020/12/03 03:48:23;;;;;;;25.65;15.70;;;;;;;0.17;87.28;93318.59;4183230;34;20055;-90
2020/12/03 03:51:00;;;;;;;;;;;;;;;;;;;;;
2020/12/03 03:53:26;;;;;;;39.97;19.95;;;;;;;-0.28;88.86;93335.31;4178689;27;20080;-89
2020/12/03 03:55:53;;;;;;;25.30;14.23;;;;;;;-0.49;89.71;93318.69;4183437;26;20164;-90
2020/12/03 03:58:22;;;;;;;;;;;;;;;-0.36;89.68;93327.66;4180869;26;20112;-89
2020/12/03 04:00:50;;;;;;;17.83;10.68;;;;;;;-0.85;91.88;93316.81;4180341;26;20027;-88
2020/12/03 04:03:22;;;;;;;28.25;13.32;;;;;;;-0.72;90.79;93326.59;4183357;26;20068;-88
2020/12/03 04:05:51;;;;;;;19.88;11.10;;;;;;;-1.30;92.60;93290.50;4180300;26;20075;-89
2020/12/03 04:08:22;;;;;;;23.73;13.68;;;;;;;-0.88;92.33;93319.59;4180249;26;20068;-88
2020/12/03 04:10:50;;;;;;;25.30;13.35;;;;;;;-0.74;91.13;93318.38;4179693;26;20079;-89
2020/12/03 04:13:19;;;;;;;37.03;14.48;;;;;;;-0.83;92.83;93304.84;4180791;34;20055;-89
2020/12/03 04:15:48;;;;;;;34.35;19.45;;;;;;;-0.65;91.44;93318.50;4184187;26;20060;-89
2020/12/03 04:18:16;;;;;;;29.70;15.68;;;;;;;-0.66;91.18;93310.13;4181291;26;20463;-89
2020/12/03 04:20:55;;;;;;;;;;;;;;;;;;;;;
2020/12/03 04:23:22;;;;;;;32.58;13.48;;;;;;;-0.87;93.27;93311.13;4179207;34;20068;-88
2020/12/03 04:25:48;;;;;;;33.05;15.20;;;;;;;-0.98;93.70;93317.09;4181085;26;20093;-88
2020/12/03 04:28:14;;;;;;;;;;;;;;;-0.86;93.74;93312.72;4184515;26;20592;-88
2020/12/03 04:30:47;;;;;;;24.90;13.48;;;;;;;-0.71;93.06;93308.00;4181101;26;20029;-89
2020/12/03 04:33:16;;;;;;;28.33;15.30;;;;;;;-0.80;93.56;93308.84;4183759;34;20091;-88
2020/12/03 04:35:53;;;;;;;23.98;16.27;;;;;;;-0.77;93.07;93312.81;4183447;26;20044;-88
2020/12/03 04:38:19;;;;;;;33.38;15.20;;;;;;;-0.74;93.34;93325.16;4183838;34;20048;-88
2020/12/03 04:40:46;;;;;;;25.00;14.82;;;;;;;-0.52;91.95;93316.44;4180907;26;20090;-89
2020/12/03 04:43:23;;;;;;;36.15;15.45;;;;;;;-0.60;91.27;93308.78;4181279;26;20078;-89
2020/12/03 04:45:54;;;;;;;46.75;22.20;;;;;;;-0.50;91.18;93316.31;4183732;34;20121;-89
2020/12/03 04:48:52;;;;;;;32.85;16.48;;;;;;;-0.88;92.15;93307.00;4181037;26;20072;-88
2020/12/03 04:51:48;;;;;;;;;;;;;;;;;;;;;
2020/12/03 04:54:28;;;;;;;28.83;14.98;;;;;;;-0.99;93.33;93307.97;4175548;34;20067;-89
2020/12/03 04:57:04;;;;;;;25.33;15.43;;;;;;;-1.12;95.04;93325.91;4183948;26;20391;-88
2020/12/03 04:59:57;;;;;;;22.00;13.70;;;;;;;-0.98;93.95;93306.22;4183929;26;20131;-88
2020/12/03 05:02:47;;;;;;;27.63;13.55;;;;;;;-1.00;94.89;93306.38;4183689;34;20083;-89
2020/12/03 05:05:24;;;;;;;27.30;14.23;;;;;;;-1.01;94.86;93306.50;4183911;26;20123;-89
2020/12/03 05:08:02;;;;;;;37.35;17.10;;;;;;;-0.99;95.48;93315.53;4184056;26;20098;-89
2020/12/03 05:10:39;;;;;;;26.48;14.02;;;;;;;-1.02;95.07;93295.63;4183676;34;20071;-88
2020/12/03 05:13:25;;;;;;;23.25;13.85;;;;;;;-1.13;95.06;93320.97;4184414;26;20083;-89
2020/12/03 05:15:59;;;;;;;26.02;14.65;;;;;;;-1.40;95.77;93317.44;4183710;34;20064;-89
2020/12/03 05:18:36;;;;;;;32.17;15.25;;;;;;;-1.40;96.09;93315.72;4184063;34;20208;-92
2020/12/03 05:21:13;;;;;;;35.53;15.88;;;;;;;-1.32;96.09;93314.25;4180993;26;20195;-90
2020/12/03 05:23:44;;;;;;;30.80;18.98;;;;;;;-1.28;96.20;93300.44;4184052;26;20084;-89
2020/12/03 05:26:16;;;;;;;46.58;19.38;;;;;;;-1.01;96.03;93309.84;4183736;34;20067;-90
2020/12/03 05:28:59;;;;;;;;;;;;;;;;;;;;;
2020/12/03 05:31:33;;;;;;;37.28;22.65;;;;;;;-1.11;96.73;93316.63;4174927;27;20437;-89
2020/12/03 05:34:10;;;;;;;36.15;21.38;;;;;;;-0.85;96.65;93319.34;4184136;26;20043;-88
2020/12/03 05:37:11;;;;;;;;;;;;;;;;;;;;;
2020/12/03 05:46:04;;;;;;;37.03;19.63;;;;;;;-0.18;93.50;93300.72;3994460;28;20076;-88
2020/12/03 05:48:30;;;;;;;29.40;16.92;;;;;;;0.02;93.09;93304.88;4136191;28;20145;-88
2020/12/03 05:50:57;;;;;;;35.15;15.95;;;;;;;0.19;94.66;93311.66;4165132;26;20127;-88
2020/12/03 05:53:41;;;;;;;;;;;;;;;;;;;;;
2020/12/03 05:56:16;;;;;;;22.58;14.23;;;;;;;0.20;93.80;93290.53;4176274;27;20035;-91
2020/12/03 05:58:43;;;;;;;39.67;15.98;;;;;;;0.21;94.17;93269.38;4184235;26;20222;-89
2020/12/03 06:01:16;;;;;;;;;;;;;;;0.50;93.82;93307.97;4181643;34;20098;-90
2020/12/03 06:03:58;;;;;;;34.33;20.35;;;;;;;0.35;93.75;93288.28;4184192;26;19964;-89
2020/12/03 06:07:14;;;;;;;41.45;20.70;;;;;;;0.60;94.64;93305.41;4181191;26;20068;-88
2020/12/03 06:10:13;;;;;;;27.92;10.40;;;;;;;0.83;98.26;93294.81;4181191;26;20113;-89
2020/12/03 06:13:02;;;;;;;13.02;6.95;;;;;;;1.02;99.53;93296.38;4181096;26;20079;-88
2020/12/03 06:15:37;;;;;;;12.50;5.80;;;;;;;1.20;99.96;93291.22;4184311;26;20067;-89
2020/12/03 06:18:31;;;;;;;12.82;8.98;;;;;;;1.16;100.00;93267.97;4181326;26;20082;-88
2020/12/03 06:21:34;;;;;;;23.67;12.63;;;;;;;1.44;100.00;93287.25;4180772;26;20048;-88
2020/12/03 06:24:16;;;;;;;20.48;8.07;;;;;;;1.55;99.34;93293.78;4178204;27;20519;-89
2020/12/03 06:27:02;;;;;;;32.30;14.52;;;;;;;1.59;99.01;93283.19;4182374;26;20484;-88
2020/12/03 06:29:54;;;;;;;28.33;14.15;;;;;;;1.71;98.36;93305.72;4180509;26;20105;-89
2020/12/03 06:33:01;;;;;;;39.20;16.45;;;;;;;1.67;98.69;93297.59;4180414;34;20132;-89
2020/12/03 06:35:46;;;;;;;25.35;11.52;;;;;;;1.86;95.97;93304.16;4169215;27;20076;-89
2020/12/03 06:38:21;;;;;;;23.15;10.98;;;;;;;1.98;97.32;93304.69;4183495;34;20072;-88
2020/12/03 06:40:55;;;;;;;75.03;34.15;;;;;;;1.87;97.36;93275.34;4183535;26;20396;-87
2020/12/03 06:43:30;;;;;;;38.08;16.23;;;;;;;2.28;96.88;93306.81;4183586;26;20087;-88
2020/12/03 06:46:34;;;;;;;49.95;21.75;;;;;;;2.43;97.52;93299.38;4183547;26;20251;-87
2020/12/03 06:49:21;;;;;;;17.73;9.23;;;;;;;2.60;96.60;93300.16;4161359;27;20101;-87
2020/12/03 06:52:06;;;;;;;14.55;8.07;;;;;;;2.65;94.65;93297.19;4171444;27;20059;-87
2020/12/03 06:54:58;;;;;;;13.95;5.57;;;;;;;2.79;93.54;93301.59;4202994;26;20095;-87
2020/12/03 06:57:55;;;;;;;13.90;6.07;;;;;;;2.92;94.64;93300.34;4183642;26;20095;-86
2020/12/03 07:00:47;;;;;;;9.60;4.93;;;;;;;2.62;94.77;93247.56;4183781;26;20080;-88
2020/12/03 07:03:57;;;;;;;6.82;4.85;;;;;;;3.06;94.11;93288.75;4183672;26;20119;-86
2020/12/03 07:06:46;;;;;;;8.45;4.35;;;;;;;3.28;93.21;93294.09;4186879;26;20130;-86
2020/12/03 07:09:51;;;;;;;14.35;7.03;;;;;;;3.52;93.17;93289.91;4186898;26;20075;-86
2020/12/03 07:12:41;;;;;;;8.80;3.88;;;;;;;3.53;93.42;93289.75;4179580;26;20083;-86
2020/12/03 07:15:48;;;;;;;9.60;4.05;;;;;;;3.71;92.00;93298.88;4185530;26;20474;-86
2020/12/03 07:18:51;;;;;;;10.82;4.43;;;;;;;3.77;91.29;93299.94;4184181;26;20101;-85
2020/12/03 07:21:37;;;;;;;9.32;4.50;;;;;;;3.87;92.19;93301.34;4183958;26;20051;-85
2020/12/03 07:24:06;;;;;;;10.82;6.38;;;;;;;4.04;90.95;93298.72;4180926;34;20685;-85
2020/12/03 07:26:52;;;;;;;11.32;5.20;;;;;;;3.94;90.71;93295.59;4180798;26;20076;-85
2020/12/03 07:29:26;;;;;;;12.75;6.70;;;;;;;4.20;91.11;93294.50;4180294;27;20060;-86
2020/12/03 07:31:59;;;;;;;8.82;4.65;;;;;;;4.32;89.57;93297.44;4183562;26;20075;-85
2020/12/03 07:34:35;;;;;;;36.88;15.75;;;;;;;4.53;88.47;93271.38;4183826;26;20196;-85
2020/12/03 07:37:13;;;;;;;163.90;66.47;;;;;;;4.90;87.43;93299.56;4180504;26;20114;-85
2020/12/03 07:39:40;;;;;;;206.15;78.97;;;;;;;4.99;86.59;93287.56;4180570;34;20431;-84
2020/12/03 07:42:13;;;;;;;57.65;24.30;;;;;;;4.77;85.44;93234.78;4183468;26;20276;-84
2020/12/03 07:44:42;;;;;;;122.63;45.03;;;;;;;5.52;83.70;93294.38;4180106;34;20426;-84
2020/12/03 07:47:31;;;;;;;106.13;42.90;;;;;;;5.62;82.76;93300.75;4180146;34;20577;-84
2020/12/03 07:49:59;;;;;;;134.73;39.75;;;;;;;5.71;82.20;93298.16;4183297;26;20108;-85
2020/12/03 07:52:31;;;;;;;360.55;114.90;;;;;;;5.79;82.04;93305.69;4183471;26;20060;-84
2020/12/03 07:55:29;;;;;;;253.35;78.47;;;;;;;5.79;81.36;93308.22;4180367;26;20076;-84
2020/12/03 07:57:57;;;;;;;114.60;37.78;;;;;;;5.87;81.10;93295.41;4180568;27;20056;-86
2020/12/03 08:00:43;;;;;;;157.65;48.35;;;;;;;5.97;80.68;93297.66;4184524;26;20071;-85
2020/12/03 08:03:31;;;;;;;;;;;;;;;6.12;80.37;93299.44;4211337;26;20064;-85
2020/12/03 08:06:10;;;;;;;205.43;50.10;;;;;;;6.05;79.64;93301.09;4183727;26;20008;-85
2020/12/03 08:08:38;;;;;;;98.78;28.73;;;;;;;6.11;79.10;93310.59;4183551;26;20048;-85
2020/12/03 08:11:07;;;;;;;284.75;75.82;;;;;;;6.22;78.90;93310.13;4180265;26;20067;-85
2020/12/03 08:13:38;;;;;;;356.02;99.70;;;;;;;6.31;78.37;93313.38;4180673;26;20468;-86
2020/12/03 08:16:06;;;;;;;457.98;122.65;;;;;;;6.46;77.38;93326.06;4180619;26;20165;-86
2020/12/03 08:18:46;;;;;;;193.73;51.45;;;;;;;6.46;76.88;93322.72;4183703;26;20082;-85
2020/12/03 08:21:15;;;;;;;130.30;37.58;;;;;;;6.38;76.35;93321.06;4183318;26;20071;-86
2020/12/03 08:23:50;;;;;;;710.53;219.07;;;;;;;6.35;76.57;93324.78;4180291;26;20118;-87
2020/12/03 08:26:24;;;;;;;163.50;58.75;;;;;;;6.17;76.12;93326.94;4180625;26;20178;-86
2020/12/03 08:28:51;;;;;;;159.15;45.75;;;;;;;6.14;76.77;93320.44;4183436;26;20071;-86
2020/12/03 08:31:16;;;;;;;;;;;;;;;6.23;77.35;93318.56;4180533;26;20067;-86
2020/12/03 08:33:44;;;;;;;108.20;35.45;;;;;;;6.24;76.46;93323.50;4180161;34;19968;-86
2020/12/03 08:36:12;;;;;;;61.47;17.33;;;;;;;6.40;76.47;93329.34;4183276;26;20048;-86
2020/12/03 08:38:40;;;;;;;18.13;7.47;;;;;;;6.28;75.54;93317.06;4180462;34;20591;-86
2020/12/03 08:41:09;;;;;;;60.17;18.27;;;;;;;6.36;75.83;93330.69;4180768;26;20071;-87
2020/12/03 08:43:42;;;;;;;99.35;25.88;;;;;;;6.34;75.69;93332.63;4180934;26;20044;-86
2020/12/03 08:46:14;;;;;;;97.97;26.27;;;;;;;6.36;76.42;93331.47;4183923;34;20557;-88
2020/12/03 08:48:41;;;;;;;155.48;41.83;;;;;;;6.47;76.30;93329.44;4180684;34;20141;-87
2020/12/03 08:51:11;;;;;;;115.38;31.58;;;;;;;6.61;76.00;93322.69;4181057;26;20051;-88
2020/12/03 08:53:38;;;;;;;141.05;37.67;;;;;;;6.73;75.51;93325.53;4183791;34;20131;-88
2020/12/03 08:56:25;;;;;;;122.40;34.40;;;;;;;6.88;74.90;93320.34;4181366;34;20129;-88
2020/12/03 08:58:59;;;;;;;261.65;70.45;;;;;;;7.06;73.98;93325.81;4182622;26;20100;-89
2020/12/03 09:01:32;;;;;;;95.25;29.02;;;;;;;7.05;74.32;93319.13;4184916;26;20044;-88
2020/12/03 09:03:59;;;;;;;46.70;14.85;;;;;;;7.11;73.78;93321.91;4185036;34;20068;-88
2020/12/03 09:09:50;;;;;;;17.40;7.25;;;;;;;6.93;73.98;93303.53;4185845;34;20097;-89
2020/12/03 09:12:21;;;;;;;63.33;17.15;;;;;;;7.21;73.65;93312.97;4186201;26;20113;-90
2020/12/03 09:14:49;;;;;;;67.70;19.13;;;;;;;7.30;73.48;93305.13;4183268;26;20044;-91
2020/12/03 09:18:02;;;;;;;42.13;14.27;;;;;;;7.31;72.60;93302.41;4186041;26;20477;-90
2020/12/03 09:20:50;;;;;;;42.67;15.57;;;;;;;7.36;72.04;93299.28;4187001;26;20048;-90
2020/12/03 09:23:23;;;;;;;41.45;15.75;;;;;;;7.18;71.63;93281.88;4186821;26;20044;-92
2020/12/03 09:29:35;;;;;;;21.27;7.72;;;;;;;7.26;72.59;93299.63;4191095;26;20480;-93
2020/12/03 09:32:05;;;;;;;18.27;6.72;;;;;;;7.12;72.85;93293.63;4183615;26;20071;-92
2020/12/03 09:34:35;;;;;;;18.23;7.15;;;;;;;7.09;73.56;93294.00;4183638;26;20500;-91
2020/12/03 09:37:03;;;;;;;26.73;9.98;;;;;;;7.12;73.56;93293.63;4183151;26;20480;-95
2020/12/03 09:39:32;;;;;;;45.25;20.55;;;;;;;6.95;73.77;93283.69;4189207;26;20044;-92
2020/12/03 09:42:02;;;;;;;12.45;6.25;;;;;;;6.85;74.18;93285.00;4187420;26;20372;-91
2020/12/03 09:45:10;;;;;;;7.57;3.75;;;;;;;6.69;75.10;93274.06;4188088;26;20068;-91
2020/12/03 09:47:37;;;;;;;11.75;4.80;;;;;;;6.64;75.75;93264.41;4183624;34;20067;-91
2020/12/03 09:50:14;;;;;;;7.30;4.03;;;;;;;6.77;75.82;93250.16;4183774;26;20047;-92
2020/12/03 09:55:36;;;;;;;25.50;10.90;;;;;;;7.01;75.72;93220.88;4249524;26;20597;-90
2020/12/03 10:05:25;;;;;;;20.80;9.95;;;;;;;7.64;73.23;93220.97;4176751;26;20175;-90
2020/12/03 10:11:18;;;;;;;12.75;5.55;;;;;;;7.88;73.42;93228.13;4214423;27;20401;-89
2020/12/03 10:14:07;;;;;;;15.15;8.27;;;;;;;8.12;72.88;93245.72;4160475;34;20091;-88
2020/12/03 10:16:39;;;;;;;11.38;5.65;;;;;;;8.21;72.59;93247.13;4160027;26;20444;-89
2020/12/03 10:19:09;;;;;;;7.38;3.78;;;;;;;8.17;72.09;93233.13;4158551;27;20139;-89
2020/12/03 10:21:46;;;;;;;7.82;4.05;;;;;;;8.11;71.90;93211.66;4156032;26;20233;-89
2020/12/03 10:24:20;;;;;;;8.40;3.05;;;;;;;8.09;72.56;93221.31;4159009;26;20068;-87
2020/12/03 10:26:50;;;;;;;5.40;2.72;;;;;;;8.14;72.53;93233.50;4158844;34;20059;-87
2020/12/03 10:29:33;;;;;;;6.38;3.78;;;;;;;8.15;72.25;93220.53;4156638;26;20045;-88
2020/12/03 10:32:07;;;;;;;9.45;3.17;;;;;;;8.05;73.04;93194.53;4159753;27;20068;-88
2020/12/03 10:34:38;;;;;;;7.38;3.92;;;;;;;8.23;72.38;93201.66;4156174;26;20068;-88
2020/12/03 10:37:17;;;;;;;5.40;2.78;;;;;;;8.39;71.36;93209.94;4156533;26;20091;-88
2020/12/03 10:39:52;;;;;;;8.57;2.85;;;;;;;8.18;71.05;93169.97;4156839;26;20056;-88
2020/12/03 10:42:20;;;;;;;7.15;3.88;;;;;;;8.26;71.48;93210.72;4160189;26;20048;-90
2020/12/03 10:44:51;;;;;;;5.15;2.80;;;;;;;8.28;71.35;93204.41;4159499;26;20064;-88
2020/12/03 10:47:25;;;;;;;9.38;3.00;;;;;;;7.84;72.71;93198.84;4160740;26;20044;-89
2020/12/03 10:49:52;;;;;;;5.20;2.30;;;;;;;7.77;73.24;93199.78;4159438;26;20076;-88
2020/12/03 10:52:27;;;;;;;4.13;2.25;;;;;;;7.82;73.61;93200.00;4160671;34;20068;-91
2020/12/03 10:55:04;;;;;;;7.93;3.65;;;;;;;7.98;73.86;93198.84;4160337;26;20073;-90
2020/12/03 10:57:33;;;;;;;11.60;3.53;;;;;;;7.65;73.87;93143.31;4162563;26;20088;-90
2020/12/03 11:00:11;;;;;;;11.63;4.57;;;;;;;7.79;73.43;93146.69;4163594;26;20049;-92
2020/12/03 11:03:33;;;;;;;;;;;;;;;;;;;;;
2020/12/03 11:09:27;;;;;;;7.35;3.58;;;;;;;8.28;73.47;93180.59;4161589;34;20071;-92
2020/12/03 11:11:54;;;;;;;6.30;3.50;;;;;;;8.33;73.46;93183.34;4159416;27;20048;-91
2020/12/03 11:14:27;;;;;;;5.20;2.78;;;;;;;8.28;73.40;93176.25;4162693;26;20068;-93
2020/12/03 11:16:59;;;;;;;20.98;4.88;;;;;;;8.35;73.18;93173.72;4164190;26;20056;-91
2020/12/03 11:19:27;;;;;;;7.93;3.30;;;;;;;8.15;72.99;93140.44;4161845;34;20071;-92
2020/12/03 11:22:12;;;;;;;6.95;2.80;;;;;;;7.78;73.66;93086.28;4159663;27;20045;-92
2020/12/03 11:27:55;;;;;;;7.93;3.50;;;;;;;8.42;72.61;93155.78;4232066;27;20075;-92
2020/12/03 11:38:03;;;;;;;10.40;3.75;;;;;;;8.58;73.11;93146.16;4130459;27;20099;-93
2020/12/03 11:40:38;;;;;;;7.30;3.72;;;;;;;8.53;72.02;93137.28;4126832;27;20402;-91
2020/12/03 11:43:18;;;;;;;12.18;4.43;;;;;;;8.58;72.98;93144.41;4127459;34;20139;-93
2020/12/03 11:46:31;;;;;;;9.18;5.40;;;;;;;8.44;73.13;93146.16;4127351;34;20059;-92
2020/12/03 11:48:58;;;;;;;9.88;3.75;;;;;;;8.34;73.63;93133.72;4139297;27;20533;-93
2020/12/03 11:51:28;;;;;;;9.32;3.65;;;;;;;8.38;73.88;93139.25;4139785;26;20126;-92
2020/12/03 11:53:57;;;;;;;7.70;3.58;;;;;;;8.32;73.58;93130.59;4139585;27;20115;-92
2020/12/03 11:56:25;;;;;;;7.28;3.75;;;;;;;8.23;74.26;93136.88;4139820;26;20087;-91
2020/12/03 11:59:14;;;;;;;6.15;3.53;;;;;;;8.07;74.63;93136.31;4139298;34;20076;-91
2020/12/03 12:01:56;;;;;;;4.97;2.50;;;;;;;7.96;75.18;93142.00;4158199;27;20052;-91
2020/12/03 12:04:27;;;;;;;5.50;2.45;;;;;;;7.96;75.51;93142.00;4168269;26;20056;-92
2020/12/03 12:07:06;;;;;;;5.15;2.97;;;;;;;7.95;76.11;93132.72;4169367;26;20472;-90
2020/12/03 12:27:21;;;;;;;10.13;4.63;;;;;;;7.68;77.51;93118.13;4274689;27;20076;-93
2020/12/03 12:29:48;;;;;;;8.77;3.73;;;;;;;7.17;77.33;93055.50;4100158;27;20050;-92
2020/12/03 12:32:14;;;;;;;10.73;3.30;;;;;;;7.04;77.29;93028.94;4100574;27;20116;-92
2020/12/03 12:34:43;;;;;;;7.68;4.05;;;;;;;7.56;77.47;93102.59;4101252;27;20123;-92
2020/12/03 12:37:09;;;;;;;7.93;3.92;;;;;;;7.27;77.67;93048.25;4100956;27;20057;-93
2020/12/03 12:39:38;;;;;;;;;;;;;;;7.69;77.67;93114.59;4101152;27;20115;-91
2020/12/03 12:42:07;;;;;;;7.68;3.28;;;;;;;7.42;78.08;93106.09;4100781;27;19970;-92
2020/12/03 12:44:33;;;;;;;8.05;4.20;;;;;;;7.37;78.47;93113.53;4101230;27;20058;-92
2020/12/03 12:47:01;;;;;;;7.97;4.55;;;;;;;6.63;78.51;93012.69;4101415;27;20058;-92
2020/12/03 12:49:30;;;;;;;8.50;3.58;;;;;;;6.75;79.38;93047.91;4101788;27;20498;-92
2020/12/03 12:51:57;;;;;;;6.00;2.38;;;;;;;6.67;79.53;93024.09;4101615;27;20066;-94
2020/12/03 12:54:24;;;;;;;6.75;3.50;;;;;;;6.90;79.34;93035.75;4101308;27;20531;-93
2020/12/03 12:56:54;;;;;;;6.88;3.83;;;;;;;7.06;78.60;93041.50;4103340;34;20062;-93
2020/12/03 12:59:21;;;;;;;6.57;2.63;;;;;;;7.77;78.36;93113.63;4126904;34;20069;-91
2020/12/03 13:01:49;;;;;;;11.07;3.85;;;;;;;7.82;78.10;93118.19;4124337;27;20099;-91
2020/12/03 13:04:31;;;;;;;5.57;3.20;;;;;;;7.87;78.01;93115.81;4113998;27;20066;-92
2020/12/03 13:10:49;;;;;;;7.15;3.35;;;;;;;7.78;77.60;93112.63;4116480;35;20173;-92
2020/12/03 13:13:16;;;;;;;4.65;2.50;;;;;;;7.53;78.04;93074.06;4145829;27;20049;-92
2020/12/03 13:15:42;;;;;;;10.45;5.07;;;;;;;7.75;78.03;93100.25;4158777;26;20068;-92
2020/12/03 13:21:17;;;;;;;12.93;7.85;;;;;;;7.83;78.25;93087.28;4161292;26;19971;-93
2020/12/03 13:23:47;;;;;;;6.35;3.25;;;;;;;7.89;77.64;93090.84;4157372;26;20069;-92
2020/12/03 13:26:16;;;;;;;7.88;2.72;;;;;;;7.55;77.50;93024.31;4158334;34;20049;-92
2020/12/03 13:28:44;;;;;;;5.72;3.10;;;;;;;7.43;77.49;93008.00;4159764;34;20063;-89
2020/12/03 13:31:11;;;;;;;4.55;2.03;;;;;;;7.84;77.46;93082.97;4160162;26;20069;-92
2020/12/03 13:33:37;;;;;;;4.55;1.85;;;;;;;7.71;78.42;93081.16;4155419;26;20114;-91
2020/12/03 13:36:04;;;;;;;4.45;2.38;;;;;;;7.49;78.65;93059.13;4154996;26;20045;-91
2020/12/03 13:38:30;;;;;;;;;;;;;;;7.75;78.62;93079.81;4159300;26;20045;-91
2020/12/03 13:40:58;;;;;;;8.48;3.85;;;;;;;7.54;78.24;93057.75;4158822;27;19992;-92
2020/12/03 13:43:24;;;;;;;4.35;2.25;;;;;;;7.72;78.64;93078.41;4155605;34;20059;-91
2020/12/03 13:45:52;;;;;;;8.05;3.42;;;;;;;7.69;78.03;93063.47;4155019;26;20465;-93
2020/12/03 13:48:19;;;;;;;8.07;3.33;;;;;;;7.75;77.86;93083.16;4157867;34;20096;-93
2020/12/03 13:50:45;;;;;;;5.45;2.35;;;;;;;7.72;77.82;93080.97;4155454;26;20131;-92
2020/12/03 13:53:22;;;;;;;4.80;2.50;;;;;;;7.69;78.09;93073.69;4158020;34;20505;-92
2020/12/03 13:55:50;;;;;;;4.97;2.83;;;;;;;7.66;77.90;93074.09;4156464;27;20529;-92
2020/12/03 13:58:16;;;;;;;8.02;4.05;;;;;;;7.72;77.85;93075.88;4157809;26;20068;-92
2020/12/03 14:00:42;;;;;;;;;;;;;;;7.72;78.09;93064.84;4155837;26;20071;-93
2020/12/03 14:03:09;;;;;;;8.02;4.38;;;;;;;7.63;78.06;93069.34;4174498;34;19980;-93
2020/12/03 14:05:36;;;;;;;12.80;6.63;;;;;;;7.45;78.37;93046.94;4182217;26;20075;-92
2020/12/03 14:08:07;;;;;;;20.20;6.50;;;;;;;7.12;78.37;93002.44;4190038;26;20056;-93
2020/12/03 14:10:35;;;;;;;13.95;4.20;;;;;;;7.48;78.21;93060.09;4184130;26;20055;-93
2020/12/03 14:13:02;;;;;;;16.27;6.60;;;;;;;7.56;78.25;93066.81;4187645;34;20080;-92
2020/12/03 14:15:29;;;;;;;15.20;5.13;;;;;;;7.55;77.98;93078.00;4189612;26;20051;-93
2020/12/03 14:17:56;;;;;;;18.75;7.32;;;;;;;7.57;77.89;93065.03;4189903;34;20556;-93
2020/12/03 14:20:24;;;;;;;20.00;8.80;;;;;;;7.51;78.05;93069.16;4186922;26;20414;-92
2020/12/03 14:22:50;;;;;;;12.23;5.45;;;;;;;7.49;78.30;93064.22;4186512;26;20071;-93
2020/12/03 14:25:16;;;;;;;;;;;;;;;7.49;78.05;93063.44;4190029;26;20047;-93
2020/12/03 14:27:44;;;;;;;16.75;6.50;;;;;;;7.22;78.41;93043.72;4188361;26;19960;-94
2020/12/03 14:30:10;;;;;;;17.20;6.95;;;;;;;7.27;78.23;93043.13;4190955;26;20109;-94
2020/12/03 14:32:36;;;;;;;;;;;;;;;7.36;78.16;93061.63;4188678;26;20044;-93
2020/12/03 14:35:03;;;;;;;8.07;3.83;;;;;;;7.28;78.79;93060.06;4187007;26;19963;-93
2020/12/03 14:37:35;;;;;;;12.95;5.35;;;;;;;7.21;78.44;93064.34;4194971;26;20146;-93
2020/12/03 14:40:03;;;;;;;17.58;8.27;;;;;;;7.14;78.80;93056.69;4195390;26;20052;-92
2020/12/03 14:42:29;;;;;;;10.63;6.15;;;;;;;7.14;78.75;93061.78;4196950;26;20085;-92
2020/12/03 14:45:12;;;;;;;;;;;;;;;7.10;78.87;93055.50;4190937;34;20068;-93